sensor_id;sensor_type;location;lat;lon;timestamp;temperature;humidity
45343;DHT22;31077;50.872;4.352;2022-11-14T00:00:22;25.20;40.70
45343;DHT22;31077;50.872;4.352;2022-11-14T00:02:47;25.20;40.60
45343;DHT22;31077;50.872;4.352;2022-11-14T00:05:13;25.20;40.70
45343;DHT22;31077;50.872;4.352;2022-11-14T00:07:39;25.20;40.60
45343;DHT22;31077;50.872;4.352;2022-11-14T00:10:05;25.20;40.70
45343;DHT22;31077;50.872;4.352;2022-11-14T00:12:31;25.20;40.70
45343;DHT22;31077;50.872;4.352;2022-11-14T00:14:56;25.20;40.80
45343;DHT22;31077;50.872;4.352;2022-11-14T00:17:22;25.20;40.60
45343;DHT22;31077;50.872;4.352;2022-11-14T00:19:48;25.20;40.60
45343;DHT22;31077;50.872;4.352;2022-11-14T00:22:14;23.50;39.60
45343;DHT22;31077;50.872;4.352;2022-11-14T00:24:39;25.20;40.40
45343;DHT22;31077;50.872;4.352;2022-11-14T00:27:05;25.20;40.50
45343;DHT22;31077;50.872;4.352;2022-11-14T00:29:31;25.20;40.40
45343;DHT22;31077;50.872;4.352;2022-11-14T00:31:57;25.20;40.40
45343;DHT22;31077;50.872;4.352;2022-11-14T00:34:22;25.20;40.60
45343;DHT22;31077;50.872;4.352;2022-11-14T00:36:48;25.20;40.60
45343;DHT22;31077;50.872;4.352;2022-11-14T00:39:14;25.20;40.40
45343;DHT22;31077;50.872;4.352;2022-11-14T00:41:40;25.30;40.60
45343;DHT22;31077;50.872;4.352;2022-11-14T00:44:07;25.20;40.60
45343;DHT22;31077;50.872;4.352;2022-11-14T00:46:33;25.20;40.50
45343;DHT22;31077;50.872;4.352;2022-11-14T00:48:59;25.20;40.60
45343;DHT22;31077;50.872;4.352;2022-11-14T00:51:26;25.20;40.50
45343;DHT22;31077;50.872;4.352;2022-11-14T00:53:52;25.20;40.50
45343;DHT22;31077;50.872;4.352;2022-11-14T00:56:18;25.20;40.40
45343;DHT22;31077;50.872;4.352;2022-11-14T00:58:43;25.20;40.40
45343;DHT22;31077;50.872;4.352;2022-11-14T01:01:09;25.20;40.30
45343;DHT22;31077;50.872;4.352;2022-11-14T01:03:35;25.20;40.30
45343;DHT22;31077;50.872;4.352;2022-11-14T01:06:06;25.20;40.30
45343;DHT22;31077;50.872;4.352;2022-11-14T01:08:33;25.20;40.20
45343;DHT22;31077;50.872;4.352;2022-11-14T01:10:59;25.20;40.20
45343;DHT22;31077;50.872;4.352;2022-11-14T01:13:25;25.20;40.00
45343;DHT22;31077;50.872;4.352;2022-11-14T01:15:51;25.20;40.00
45343;DHT22;31077;50.872;4.352;2022-11-14T01:18:20;25.20;40.00
45343;DHT22;31077;50.872;4.352;2022-11-14T01:20:47;25.20;40.00
45343;DHT22;31077;50.872;4.352;2022-11-14T01:23:14;25.20;40.00
45343;DHT22;31077;50.872;4.352;2022-11-14T01:25:41;25.20;39.90
45343;DHT22;31077;50.872;4.352;2022-11-14T01:28:09;25.20;39.90
45343;DHT22;31077;50.872;4.352;2022-11-14T01:30:35;25.20;39.80
45343;DHT22;31077;50.872;4.352;2022-11-14T01:33:01;25.20;39.90
45343;DHT22;31077;50.872;4.352;2022-11-14T01:35:27;25.20;39.80
45343;DHT22;31077;50.872;4.352;2022-11-14T01:37:53;25.20;40.40
45343;DHT22;31077;50.872;4.352;2022-11-14T01:40:19;25.20;39.80
45343;DHT22;31077;50.872;4.352;2022-11-14T01:45:51;25.20;39.80
45343;DHT22;31077;50.872;4.352;2022-11-14T01:51:13;25.20;39.70
45343;DHT22;31077;50.872;4.352;2022-11-14T01:53:40;25.10;39.50
45343;DHT22;31077;50.872;4.352;2022-11-14T01:56:07;25.20;39.70
45343;DHT22;31077;50.872;4.352;2022-11-14T01:58:36;25.10;39.60
45343;DHT22;31077;50.872;4.352;2022-11-14T02:01:03;25.10;39.50
45343;DHT22;31077;50.872;4.352;2022-11-14T02:03:29;25.10;39.40
45343;DHT22;31077;50.872;4.352;2022-11-14T02:05:56;25.10;39.30
45343;DHT22;31077;50.872;4.352;2022-11-14T02:08:22;25.20;39.40
45343;DHT22;31077;50.872;4.352;2022-11-14T02:10:48;25.20;39.30
45343;DHT22;31077;50.872;4.352;2022-11-14T02:13:14;25.10;39.20
45343;DHT22;31077;50.872;4.352;2022-11-14T02:15:40;25.20;39.20
45343;DHT22;31077;50.872;4.352;2022-11-14T02:18:06;25.20;39.20
45343;DHT22;31077;50.872;4.352;2022-11-14T02:20:37;25.10;39.10
45343;DHT22;31077;50.872;4.352;2022-11-14T02:23:08;25.20;39.20
45343;DHT22;31077;50.872;4.352;2022-11-14T02:25:33;25.20;39.20
45343;DHT22;31077;50.872;4.352;2022-11-14T02:28:00;25.20;39.20
45343;DHT22;31077;50.872;4.352;2022-11-14T02:30:26;25.20;39.30
45343;DHT22;31077;50.872;4.352;2022-11-14T02:32:52;25.20;39.30
45343;DHT22;31077;50.872;4.352;2022-11-14T02:35:18;25.10;39.30
45343;DHT22;31077;50.872;4.352;2022-11-14T02:37:44;25.10;39.30
45343;DHT22;31077;50.872;4.352;2022-11-14T02:40:10;25.10;39.30
45343;DHT22;31077;50.872;4.352;2022-11-14T02:42:36;25.20;39.30
45343;DHT22;31077;50.872;4.352;2022-11-14T02:45:02;25.10;39.20
45343;DHT22;31077;50.872;4.352;2022-11-14T02:47:27;25.10;39.30
45343;DHT22;31077;50.872;4.352;2022-11-14T02:49:53;25.10;39.20
45343;DHT22;31077;50.872;4.352;2022-11-14T02:52:19;25.10;39.10
45343;DHT22;31077;50.872;4.352;2022-11-14T02:54:44;25.10;39.20
45343;DHT22;31077;50.872;4.352;2022-11-14T02:57:10;27.10;40.40
45343;DHT22;31077;50.872;4.352;2022-11-14T02:59:36;25.10;39.10
45343;DHT22;31077;50.872;4.352;2022-11-14T03:02:01;25.00;38.90
45343;DHT22;31077;50.872;4.352;2022-11-14T03:04:27;25.00;38.90
45343;DHT22;31077;50.872;4.352;2022-11-14T03:06:53;25.10;38.90
45343;DHT22;31077;50.872;4.352;2022-11-14T03:09:19;25.10;39.50
45343;DHT22;31077;50.872;4.352;2022-11-14T03:11:44;25.10;38.90
45343;DHT22;31077;50.872;4.352;2022-11-14T03:14:10;25.10;38.90
45343;DHT22;31077;50.872;4.352;2022-11-14T03:16:36;25.10;38.70
45343;DHT22;31077;50.872;4.352;2022-11-14T03:19:02;25.10;38.70
45343;DHT22;31077;50.872;4.352;2022-11-14T03:21:27;25.10;38.70
45343;DHT22;31077;50.872;4.352;2022-11-14T03:23:53;25.10;38.70
45343;DHT22;31077;50.872;4.352;2022-11-14T03:26:19;25.00;38.50
45343;DHT22;31077;50.872;4.352;2022-11-14T03:28:45;25.10;38.50
45343;DHT22;31077;50.872;4.352;2022-11-14T03:31:12;25.00;38.50
45343;DHT22;31077;50.872;4.352;2022-11-14T03:33:38;25.10;38.50
45343;DHT22;31077;50.872;4.352;2022-11-14T03:36:04;25.00;38.40
45343;DHT22;31077;50.872;4.352;2022-11-14T03:38:31;25.00;38.40
45343;DHT22;31077;50.872;4.352;2022-11-14T03:41:00;25.00;38.40
45343;DHT22;31077;50.872;4.352;2022-11-14T03:43:30;25.00;38.90
45343;DHT22;31077;50.872;4.352;2022-11-14T03:46:00;25.00;38.30
45343;DHT22;31077;50.872;4.352;2022-11-14T03:48:27;25.00;38.40
45343;DHT22;31077;50.872;4.352;2022-11-14T03:50:53;25.00;38.20
45343;DHT22;31077;50.872;4.352;2022-11-14T03:53:19;25.00;38.20
45343;DHT22;31077;50.872;4.352;2022-11-14T03:55:45;25.00;38.20
45343;DHT22;31077;50.872;4.352;2022-11-14T03:58:10;25.00;38.20
45343;DHT22;31077;50.872;4.352;2022-11-14T04:00:36;25.00;38.10
45343;DHT22;31077;50.872;4.352;2022-11-14T04:03:02;25.00;38.10
45343;DHT22;31077;50.872;4.352;2022-11-14T04:05:28;25.00;37.90
45343;DHT22;31077;50.872;4.352;2022-11-14T04:07:54;25.00;38.00
45343;DHT22;31077;50.872;4.352;2022-11-14T04:10:19;25.00;37.80
45343;DHT22;31077;50.872;4.352;2022-11-14T04:12:53;25.00;37.90
45343;DHT22;31077;50.872;4.352;2022-11-14T04:15:19;25.00;38.40
45343;DHT22;31077;50.872;4.352;2022-11-14T04:17:45;25.00;37.70
45343;DHT22;31077;50.872;4.352;2022-11-14T04:20:12;25.00;37.70
45343;DHT22;31077;50.872;4.352;2022-11-14T04:22:38;25.00;37.70
45343;DHT22;31077;50.872;4.352;2022-11-14T04:25:06;25.00;37.70
45343;DHT22;31077;50.872;4.352;2022-11-14T04:27:32;25.00;37.70
45343;DHT22;31077;50.872;4.352;2022-11-14T04:29:58;25.00;37.70
45343;DHT22;31077;50.872;4.352;2022-11-14T04:32:24;25.00;37.70
45343;DHT22;31077;50.872;4.352;2022-11-14T04:34:50;25.00;37.70
45343;DHT22;31077;50.872;4.352;2022-11-14T04:37:16;25.00;37.60
45343;DHT22;31077;50.872;4.352;2022-11-14T04:39:41;25.00;37.60
45343;DHT22;31077;50.872;4.352;2022-11-14T04:42:07;24.90;37.60
45343;DHT22;31077;50.872;4.352;2022-11-14T04:44:33;25.00;37.60
45343;DHT22;31077;50.872;4.352;2022-11-14T04:46:59;25.00;37.50
45343;DHT22;31077;50.872;4.352;2022-11-14T04:49:24;25.00;37.50
45343;DHT22;31077;50.872;4.352;2022-11-14T04:51:50;25.00;37.50
45343;DHT22;31077;50.872;4.352;2022-11-14T04:54:16;25.00;37.50
45343;DHT22;31077;50.872;4.352;2022-11-14T04:56:42;24.90;37.40
45343;DHT22;31077;50.872;4.352;2022-11-14T04:59:07;24.90;37.30
45343;DHT22;31077;50.872;4.352;2022-11-14T05:01:33;24.90;37.20
45343;DHT22;31077;50.872;4.352;2022-11-14T05:03:59;25.00;37.30
45343;DHT22;31077;50.872;4.352;2022-11-14T05:06:24;24.90;37.20
45343;DHT22;31077;50.872;4.352;2022-11-14T05:08:50;24.90;37.20
45343;DHT22;31077;50.872;4.352;2022-11-14T05:11:17;25.00;37.10
45343;DHT22;31077;50.872;4.352;2022-11-14T05:13:43;25.00;37.00
45343;DHT22;31077;50.872;4.352;2022-11-14T05:16:09;25.00;37.00
45343;DHT22;31077;50.872;4.352;2022-11-14T05:18:35;25.00;37.10
45343;DHT22;31077;50.872;4.352;2022-11-14T05:21:02;25.00;36.90
45343;DHT22;31077;50.872;4.352;2022-11-14T05:23:27;25.00;36.90
45343;DHT22;31077;50.872;4.352;2022-11-14T05:28:25;24.90;37.50
45343;DHT22;31077;50.872;4.352;2022-11-14T05:30:51;24.90;36.90
45343;DHT22;31077;50.872;4.352;2022-11-14T05:33:16;23.90;36.50
45343;DHT22;31077;50.872;4.352;2022-11-14T05:35:42;24.90;37.00
45343;DHT22;31077;50.872;4.352;2022-11-14T05:38:08;24.90;37.00
45343;DHT22;31077;50.872;4.352;2022-11-14T05:40:33;24.90;36.90
45343;DHT22;31077;50.872;4.352;2022-11-14T05:42:59;24.90;36.90
45343;DHT22;31077;50.872;4.352;2022-11-14T05:45:25;24.90;36.90
45343;DHT22;31077;50.872;4.352;2022-11-14T05:47:51;24.90;36.90
45343;DHT22;31077;50.872;4.352;2022-11-14T05:50:18;24.90;36.90
45343;DHT22;31077;50.872;4.352;2022-11-14T05:52:44;24.90;36.90
45343;DHT22;31077;50.872;4.352;2022-11-14T05:55:10;24.90;36.80
45343;DHT22;31077;50.872;4.352;2022-11-14T05:57:35;24.90;37.30
45343;DHT22;31077;50.872;4.352;2022-11-14T06:00:03;24.90;36.70
45343;DHT22;31077;50.872;4.352;2022-11-14T06:02:29;24.90;36.60
45343;DHT22;31077;50.872;4.352;2022-11-14T06:04:55;24.90;36.60
45343;DHT22;31077;50.872;4.352;2022-11-14T06:07:20;24.90;36.60
45343;DHT22;31077;50.872;4.352;2022-11-14T06:09:46;24.90;36.60
45343;DHT22;31077;50.872;4.352;2022-11-14T06:12:12;24.90;36.40
45343;DHT22;31077;50.872;4.352;2022-11-14T06:14:37;24.90;36.40
45343;DHT22;31077;50.872;4.352;2022-11-14T06:17:03;24.90;36.40
45343;DHT22;31077;50.872;4.352;2022-11-14T06:19:29;24.90;36.40
45343;DHT22;31077;50.872;4.352;2022-11-14T06:21:54;24.90;36.30
45343;DHT22;31077;50.872;4.352;2022-11-14T06:24:20;24.90;36.40
45343;DHT22;31077;50.872;4.352;2022-11-14T06:26:46;24.90;36.40
45343;DHT22;31077;50.872;4.352;2022-11-14T06:29:12;24.90;36.40
45343;DHT22;31077;50.872;4.352;2022-11-14T06:31:37;24.90;36.20
45343;DHT22;31077;50.872;4.352;2022-11-14T06:34:06;24.90;36.30
45343;DHT22;31077;50.872;4.352;2022-11-14T06:36:32;24.90;36.30
45343;DHT22;31077;50.872;4.352;2022-11-14T06:38:58;24.90;36.20
45343;DHT22;31077;50.872;4.352;2022-11-14T06:41:23;24.90;36.20
45343;DHT22;31077;50.872;4.352;2022-11-14T06:43:50;24.90;36.10
45343;DHT22;31077;50.872;4.352;2022-11-14T06:46:19;24.90;36.10
45343;DHT22;31077;50.872;4.352;2022-11-14T06:48:46;24.90;35.90
45343;DHT22;31077;50.872;4.352;2022-11-14T06:51:13;24.90;36.00
45343;DHT22;31077;50.872;4.352;2022-11-14T06:53:40;24.90;36.00
45343;DHT22;31077;50.872;4.352;2022-11-14T06:56:08;24.90;35.90
45343;DHT22;31077;50.872;4.352;2022-11-14T06:58:40;24.90;35.80
45343;DHT22;31077;50.872;4.352;2022-11-14T07:01:14;24.90;35.90
45343;DHT22;31077;50.872;4.352;2022-11-14T07:03:41;24.90;35.80
45343;DHT22;31077;50.872;4.352;2022-11-14T07:06:08;24.90;35.80
45343;DHT22;31077;50.872;4.352;2022-11-14T07:08:35;24.90;35.90
45343;DHT22;31077;50.872;4.352;2022-11-14T07:11:05;24.90;35.90
45343;DHT22;31077;50.872;4.352;2022-11-14T07:13:32;24.90;35.80
45343;DHT22;31077;50.872;4.352;2022-11-14T07:15:59;24.90;35.80
45343;DHT22;31077;50.872;4.352;2022-11-14T07:18:25;24.90;35.70
45343;DHT22;31077;50.872;4.352;2022-11-14T07:21:03;24.90;35.80
45343;DHT22;31077;50.872;4.352;2022-11-14T07:23:30;24.90;35.80
45343;DHT22;31077;50.872;4.352;2022-11-14T07:26:03;24.90;35.70
45343;DHT22;31077;50.872;4.352;2022-11-14T07:28:36;24.90;35.80
45343;DHT22;31077;50.872;4.352;2022-11-14T07:31:07;24.90;35.70
45343;DHT22;31077;50.872;4.352;2022-11-14T07:33:34;24.90;35.80
45343;DHT22;31077;50.872;4.352;2022-11-14T07:35:59;24.90;35.90
45343;DHT22;31077;50.872;4.352;2022-11-14T07:38:25;24.90;35.80
45343;DHT22;31077;50.872;4.352;2022-11-14T07:40:59;24.80;35.70
45343;DHT22;31077;50.872;4.352;2022-11-14T07:43:25;24.90;35.70
45343;DHT22;31077;50.872;4.352;2022-11-14T07:45:51;24.90;35.70
45343;DHT22;31077;50.872;4.352;2022-11-14T07:48:17;24.90;35.70
45343;DHT22;31077;50.872;4.352;2022-11-14T07:50:43;24.90;35.70
45343;DHT22;31077;50.872;4.352;2022-11-14T07:53:09;24.90;35.70
45343;DHT22;31077;50.872;4.352;2022-11-14T07:55:36;24.90;35.60
45343;DHT22;31077;50.872;4.352;2022-11-14T07:58:02;24.90;35.60
45343;DHT22;31077;50.872;4.352;2022-11-14T08:00:28;24.80;35.50
45343;DHT22;31077;50.872;4.352;2022-11-14T08:02:54;24.90;35.50
45343;DHT22;31077;50.872;4.352;2022-11-14T08:05:19;24.90;35.60
45343;DHT22;31077;50.872;4.352;2022-11-14T08:07:45;24.90;35.50
45343;DHT22;31077;50.872;4.352;2022-11-14T08:10:11;24.90;35.50
45343;DHT22;31077;50.872;4.352;2022-11-14T08:12:39;24.90;36.10
45343;DHT22;31077;50.872;4.352;2022-11-14T08:15:09;24.90;35.60
45343;DHT22;31077;50.872;4.352;2022-11-14T08:17:36;24.90;35.70
45343;DHT22;31077;50.872;4.352;2022-11-14T08:20:02;24.90;35.70
45343;DHT22;31077;50.872;4.352;2022-11-14T08:22:28;24.90;35.70
45343;DHT22;31077;50.872;4.352;2022-11-14T08:24:55;24.90;35.70
45343;DHT22;31077;50.872;4.352;2022-11-14T08:27:21;24.90;35.70
45343;DHT22;31077;50.872;4.352;2022-11-14T08:29:47;24.90;35.70
45343;DHT22;31077;50.872;4.352;2022-11-14T08:32:13;24.90;35.70
45343;DHT22;31077;50.872;4.352;2022-11-14T08:34:39;24.90;35.70
45343;DHT22;31077;50.872;4.352;2022-11-14T08:37:05;24.80;35.60
45343;DHT22;31077;50.872;4.352;2022-11-14T08:39:31;24.80;35.50
45343;DHT22;31077;50.872;4.352;2022-11-14T08:41:56;24.90;35.60
45343;DHT22;31077;50.872;4.352;2022-11-14T08:44:22;24.90;35.60
45343;DHT22;31077;50.872;4.352;2022-11-14T08:46:49;24.90;35.50
45343;DHT22;31077;50.872;4.352;2022-11-14T08:49:15;24.90;35.60
45343;DHT22;31077;50.872;4.352;2022-11-14T08:51:41;24.90;35.40
45343;DHT22;31077;50.872;4.352;2022-11-14T08:54:06;24.90;35.50
45343;DHT22;31077;50.872;4.352;2022-11-14T08:56:32;24.90;35.50
45343;DHT22;31077;50.872;4.352;2022-11-14T08:58:58;24.90;35.50
45343;DHT22;31077;50.872;4.352;2022-11-14T09:01:24;24.90;35.50
45343;DHT22;31077;50.872;4.352;2022-11-14T09:03:50;24.90;35.40
45343;DHT22;31077;50.872;4.352;2022-11-14T09:06:15;24.90;35.50
45343;DHT22;31077;50.872;4.352;2022-11-14T09:08:41;24.90;35.50
45343;DHT22;31077;50.872;4.352;2022-11-14T09:11:07;24.90;35.50
45343;DHT22;31077;50.872;4.352;2022-11-14T09:13:34;24.90;35.60
45343;DHT22;31077;50.872;4.352;2022-11-14T09:16:00;24.90;35.60
45343;DHT22;31077;50.872;4.352;2022-11-14T09:18:25;24.90;35.60
45343;DHT22;31077;50.872;4.352;2022-11-14T09:20:51;24.90;35.60
45343;DHT22;31077;50.872;4.352;2022-11-14T09:23:17;24.90;35.60
45343;DHT22;31077;50.872;4.352;2022-11-14T09:25:43;24.90;36.10
45343;DHT22;31077;50.872;4.352;2022-11-14T09:28:08;24.90;35.60
45343;DHT22;31077;50.872;4.352;2022-11-14T09:30:35;24.90;35.70
45343;DHT22;31077;50.872;4.352;2022-11-14T09:33:02;24.90;35.60
45343;DHT22;31077;50.872;4.352;2022-11-14T09:35:29;24.90;35.60
45343;DHT22;31077;50.872;4.352;2022-11-14T09:38:03;24.90;36.10
45343;DHT22;31077;50.872;4.352;2022-11-14T09:40:33;24.90;35.50
45343;DHT22;31077;50.872;4.352;2022-11-14T09:43:11;24.90;35.50
45343;DHT22;31077;50.872;4.352;2022-11-14T09:45:42;24.90;35.50
45343;DHT22;31077;50.872;4.352;2022-11-14T09:48:13;24.90;35.50
45343;DHT22;31077;50.872;4.352;2022-11-14T09:50:57;24.90;35.60
45343;DHT22;31077;50.872;4.352;2022-11-14T09:53:47;25.00;35.60
45343;DHT22;31077;50.872;4.352;2022-11-14T09:56:21;24.90;35.50
45343;DHT22;31077;50.872;4.352;2022-11-14T09:58:51;25.00;35.50
45343;DHT22;31077;50.872;4.352;2022-11-14T10:23:20;24.90;35.70
45343;DHT22;31077;50.872;4.352;2022-11-14T10:26:25;24.90;35.70
45343;DHT22;31077;50.872;4.352;2022-11-14T10:34:41;24.90;35.70
45343;DHT22;31077;50.872;4.352;2022-11-14T10:37:18;25.00;35.80
45343;DHT22;31077;50.872;4.352;2022-11-14T10:39:51;24.90;35.70
45343;DHT22;31077;50.872;4.352;2022-11-14T10:42:29;24.90;35.70
45343;DHT22;31077;50.872;4.352;2022-11-14T10:48:01;25.00;35.80
45343;DHT22;31077;50.872;4.352;2022-11-14T10:50:51;24.90;35.70
45343;DHT22;31077;50.872;4.352;2022-11-14T10:53:27;25.00;35.70
45343;DHT22;31077;50.872;4.352;2022-11-14T10:55:54;25.00;35.70
45343;DHT22;31077;50.872;4.352;2022-11-14T10:58:21;25.00;35.80
45343;DHT22;31077;50.872;4.352;2022-11-14T11:00:47;25.00;35.80
45343;DHT22;31077;50.872;4.352;2022-11-14T11:03:13;25.00;35.80
45343;DHT22;31077;50.872;4.352;2022-11-14T11:05:48;25.00;35.90
45343;DHT22;31077;50.872;4.352;2022-11-14T11:08:21;25.00;35.80
45343;DHT22;31077;50.872;4.352;2022-11-14T11:11:13;25.00;35.90
45343;DHT22;31077;50.872;4.352;2022-11-14T11:14:16;25.00;35.80
45343;DHT22;31077;50.872;4.352;2022-11-14T11:16:42;25.00;35.80
45343;DHT22;31077;50.872;4.352;2022-11-14T11:19:22;25.00;35.80
45343;DHT22;31077;50.872;4.352;2022-11-14T11:21:50;25.00;35.90
45343;DHT22;31077;50.872;4.352;2022-11-14T11:24:36;25.00;35.90
45343;DHT22;31077;50.872;4.352;2022-11-14T11:27:31;25.00;35.80
45343;DHT22;31077;50.872;4.352;2022-11-14T11:32:28;25.00;35.80
45343;DHT22;31077;50.872;4.352;2022-11-14T11:34:55;25.00;35.80
45343;DHT22;31077;50.872;4.352;2022-11-14T11:37:25;25.00;35.70
45343;DHT22;31077;50.872;4.352;2022-11-14T11:39:55;25.00;35.70
45343;DHT22;31077;50.872;4.352;2022-11-14T11:42:39;25.00;35.70
45343;DHT22;31077;50.872;4.352;2022-11-14T11:45:14;25.00;35.60
45343;DHT22;31077;50.872;4.352;2022-11-14T11:48:07;25.10;35.70
45343;DHT22;31077;50.872;4.352;2022-11-14T11:50:31;25.00;35.60
45343;DHT22;31077;50.872;4.352;2022-11-14T11:53:11;25.10;35.70
45343;DHT22;31077;50.872;4.352;2022-11-14T11:56:06;25.10;35.70
45343;DHT22;31077;50.872;4.352;2022-11-14T11:58:40;25.10;35.70
45343;DHT22;31077;50.872;4.352;2022-11-14T12:01:12;25.10;35.60
45343;DHT22;31077;50.872;4.352;2022-11-14T12:03:38;25.10;35.60
45343;DHT22;31077;50.872;4.352;2022-11-14T12:06:11;25.10;35.60
45343;DHT22;31077;50.872;4.352;2022-11-14T12:11:07;25.10;35.60
45343;DHT22;31077;50.872;4.352;2022-11-14T12:19:08;25.00;35.60
45343;DHT22;31077;50.872;4.352;2022-11-14T12:22:27;25.10;35.60
45343;DHT22;31077;50.872;4.352;2022-11-14T12:30:24;25.10;35.90
45343;DHT22;31077;50.872;4.352;2022-11-14T12:35:23;25.10;36.40
45343;DHT22;31077;50.872;4.352;2022-11-14T12:37:53;25.10;36.80
45343;DHT22;31077;50.872;4.352;2022-11-14T12:40:26;25.10;36.90
45343;DHT22;31077;50.872;4.352;2022-11-14T12:42:54;25.10;37.20
45343;DHT22;31077;50.872;4.352;2022-11-14T12:50:45;25.10;37.40
45343;DHT22;31077;50.872;4.352;2022-11-14T13:02:12;25.10;37.50
45343;DHT22;31077;50.872;4.352;2022-11-14T13:04:56;25.10;37.40
45343;DHT22;31077;50.872;4.352;2022-11-14T13:10:23;25.10;37.40
45343;DHT22;31077;50.872;4.352;2022-11-14T13:13:06;25.10;37.60
45343;DHT22;31077;50.872;4.352;2022-11-14T13:15:56;25.10;37.60
45343;DHT22;31077;50.872;4.352;2022-11-14T13:22:32;25.10;37.80
45343;DHT22;31077;50.872;4.352;2022-11-14T13:27:29;25.10;37.90
45343;DHT22;31077;50.872;4.352;2022-11-14T13:29:57;25.10;37.90
45343;DHT22;31077;50.872;4.352;2022-11-14T13:44:11;25.10;38.00
45343;DHT22;31077;50.872;4.352;2022-11-14T13:47:01;25.10;38.00
45343;DHT22;31077;50.872;4.352;2022-11-14T13:49:50;25.10;38.00
45343;DHT22;31077;50.872;4.352;2022-11-14T13:52:18;25.10;38.00
45343;DHT22;31077;50.872;4.352;2022-11-14T13:54:48;25.10;38.00
45343;DHT22;31077;50.872;4.352;2022-11-14T14:05:57;25.10;38.10
45343;DHT22;31077;50.872;4.352;2022-11-14T14:08:49;25.10;38.10
45343;DHT22;31077;50.872;4.352;2022-11-14T14:17:14;25.10;38.20
45343;DHT22;31077;50.872;4.352;2022-11-14T14:31:18;25.10;38.30
45343;DHT22;31077;50.872;4.352;2022-11-14T14:33:51;25.10;38.30
45343;DHT22;31077;50.872;4.352;2022-11-14T14:36:24;25.10;38.30
45343;DHT22;31077;50.872;4.352;2022-11-14T14:39:05;25.00;38.20
45343;DHT22;31077;50.872;4.352;2022-11-14T14:41:34;25.00;38.30
45343;DHT22;31077;50.872;4.352;2022-11-14T14:44:00;25.00;38.50
45343;DHT22;31077;50.872;4.352;2022-11-14T14:46:31;25.00;39.00
45343;DHT22;31077;50.872;4.352;2022-11-14T14:49:00;25.00;38.50
45343;DHT22;31077;50.872;4.352;2022-11-14T14:51:34;25.00;38.50
45343;DHT22;31077;50.872;4.352;2022-11-14T14:54:00;24.90;38.40
45343;DHT22;31077;50.872;4.352;2022-11-14T14:56:27;24.90;38.40
45343;DHT22;31077;50.872;4.352;2022-11-14T14:58:53;25.00;38.40
45343;DHT22;31077;50.872;4.352;2022-11-14T15:01:24;24.90;38.30
45343;DHT22;31077;50.872;4.352;2022-11-14T15:03:56;24.90;38.30
45343;DHT22;31077;50.872;4.352;2022-11-14T15:06:31;24.90;38.30
45343;DHT22;31077;50.872;4.352;2022-11-14T15:09:02;25.00;38.30
45343;DHT22;31077;50.872;4.352;2022-11-14T15:11:33;24.90;38.20
45343;DHT22;31077;50.872;4.352;2022-11-14T15:14:00;24.90;38.20
45343;DHT22;31077;50.872;4.352;2022-11-14T15:16:27;25.00;38.20
45343;DHT22;31077;50.872;4.352;2022-11-14T15:18:54;24.90;38.10
45343;DHT22;31077;50.872;4.352;2022-11-14T15:24:14;24.90;38.10
45343;DHT22;31077;50.872;4.352;2022-11-14T15:26:44;24.90;38.00
45343;DHT22;31077;50.872;4.352;2022-11-14T15:29:17;24.90;38.10
45343;DHT22;31077;50.872;4.352;2022-11-14T15:31:57;24.90;38.10
45343;DHT22;31077;50.872;4.352;2022-11-14T15:34:30;24.90;38.10
45343;DHT22;31077;50.872;4.352;2022-11-14T15:39:44;24.90;38.00
45343;DHT22;31077;50.872;4.352;2022-11-14T15:42:26;24.90;38.10
45343;DHT22;31077;50.872;4.352;2022-11-14T15:44:54;24.90;38.10
45343;DHT22;31077;50.872;4.352;2022-11-14T15:47:26;24.90;38.50
45343;DHT22;31077;50.872;4.352;2022-11-14T15:52:49;24.90;38.10
45343;DHT22;31077;50.872;4.352;2022-11-14T15:55:20;24.90;38.00
45343;DHT22;31077;50.872;4.352;2022-11-14T15:57:46;24.90;38.10
45343;DHT22;31077;50.872;4.352;2022-11-14T16:00:13;24.90;38.00
45343;DHT22;31077;50.872;4.352;2022-11-14T16:02:48;24.90;38.10
45343;DHT22;31077;50.872;4.352;2022-11-14T16:05:15;24.90;38.10
45343;DHT22;31077;50.872;4.352;2022-11-14T16:07:42;24.90;38.00
45343;DHT22;31077;50.872;4.352;2022-11-14T16:10:18;24.90;38.10
45343;DHT22;31077;50.872;4.352;2022-11-14T16:12:44;24.90;38.00
45343;DHT22;31077;50.872;4.352;2022-11-14T16:15:10;24.90;38.00
45343;DHT22;31077;50.872;4.352;2022-11-14T16:17:38;24.90;38.00
45343;DHT22;31077;50.872;4.352;2022-11-14T16:20:05;24.90;38.00
45343;DHT22;31077;50.872;4.352;2022-11-14T16:22:31;24.90;38.00
45343;DHT22;31077;50.872;4.352;2022-11-14T16:25:00;24.90;38.00
45343;DHT22;31077;50.872;4.352;2022-11-14T16:27:26;24.90;37.90
45343;DHT22;31077;50.872;4.352;2022-11-14T16:29:52;24.90;37.90
45343;DHT22;31077;50.872;4.352;2022-11-14T16:32:18;24.90;38.00
45343;DHT22;31077;50.872;4.352;2022-11-14T16:34:44;24.90;38.00
45343;DHT22;31077;50.872;4.352;2022-11-14T16:37:12;24.90;37.90
45343;DHT22;31077;50.872;4.352;2022-11-14T16:39:38;24.90;37.90
45343;DHT22;31077;50.872;4.352;2022-11-14T16:42:04;24.90;37.90
45343;DHT22;31077;50.872;4.352;2022-11-14T16:44:31;24.90;37.80
45343;DHT22;31077;50.872;4.352;2022-11-14T16:46:58;24.90;37.80
45343;DHT22;31077;50.872;4.352;2022-11-14T16:49:24;24.90;37.80
45343;DHT22;31077;50.872;4.352;2022-11-14T16:51:50;24.90;37.80
45343;DHT22;31077;50.872;4.352;2022-11-14T16:54:17;24.90;37.70
45343;DHT22;31077;50.872;4.352;2022-11-14T16:56:43;24.90;37.70
45343;DHT22;31077;50.872;4.352;2022-11-14T16:59:09;24.90;37.70
45343;DHT22;31077;50.872;4.352;2022-11-14T17:01:36;24.90;37.80
45343;DHT22;31077;50.872;4.352;2022-11-14T17:04:02;24.90;37.80
45343;DHT22;31077;50.872;4.352;2022-11-14T17:06:28;24.90;37.80
45343;DHT22;31077;50.872;4.352;2022-11-14T17:08:55;24.90;37.80
45343;DHT22;31077;50.872;4.352;2022-11-14T17:11:21;24.90;37.80
45343;DHT22;31077;50.872;4.352;2022-11-14T17:13:47;24.90;37.90
45343;DHT22;31077;50.872;4.352;2022-11-14T17:16:12;24.90;37.80
45343;DHT22;31077;50.872;4.352;2022-11-14T17:18:38;24.90;37.90
45343;DHT22;31077;50.872;4.352;2022-11-14T17:21:06;24.90;37.80
45343;DHT22;31077;50.872;4.352;2022-11-14T17:23:32;24.90;37.90
45343;DHT22;31077;50.872;4.352;2022-11-14T17:26:05;24.90;37.90
45343;DHT22;31077;50.872;4.352;2022-11-14T17:28:32;24.90;37.80
45343;DHT22;31077;50.872;4.352;2022-11-14T17:30:58;24.90;37.80
45343;DHT22;31077;50.872;4.352;2022-11-14T17:33:24;24.90;37.70
45343;DHT22;31077;50.872;4.352;2022-11-14T17:35:50;24.90;37.80
45343;DHT22;31077;50.872;4.352;2022-11-14T17:38:16;24.90;37.70
45343;DHT22;31077;50.872;4.352;2022-11-14T17:40:41;24.90;37.70
45343;DHT22;31077;50.872;4.352;2022-11-14T17:43:07;24.90;37.70
45343;DHT22;31077;50.872;4.352;2022-11-14T17:45:33;24.90;37.80